createdAt,value
2018-09-08T00:00:01.118Z,100.00
2018-09-08T00:03:05.971Z,100.00
2018-09-08T00:06:10.391Z,100.00
2018-09-08T00:09:14.767Z,100.00
2018-09-08T00:12:19.457Z,100.00
2018-09-08T00:15:29.237Z,100.00
2018-09-08T00:18:38.948Z,100.00
2018-09-08T00:21:48.665Z,100.00
2018-09-08T00:24:58.935Z,100.00
2018-09-08T00:28:06.812Z,100.00
2018-09-08T00:31:20.728Z,100.00
2018-09-08T00:34:25.166Z,100.00
2018-09-08T00:37:29.604Z,100.00
2018-09-08T00:40:34.015Z,100.00
2018-09-08T00:43:40.130Z,100.00
2018-09-08T00:46:44.567Z,100.00
2018-09-08T00:49:48.941Z,100.00
2018-09-08T00:52:53.411Z,100.00
2018-09-08T00:55:57.783Z,100.00
2018-09-08T00:59:02.915Z,100.00
2018-09-08T01:02:07.641Z,100.00
2018-09-08T01:05:12.238Z,100.00
2018-09-08T01:08:16.635Z,100.00
2018-09-08T01:11:21.037Z,100.00
2018-09-08T01:14:25.410Z,100.00
2018-09-08T01:17:29.768Z,100.00
2018-09-08T01:20:35.017Z,100.00
2018-09-08T01:23:39.396Z,100.00
2018-09-08T01:26:43.740Z,100.00
2018-09-08T01:29:48.469Z,100.00
2018-09-08T01:32:52.844Z,100.00
2018-09-08T01:35:58.073Z,100.00
2018-09-08T01:39:02.505Z,100.00
2018-09-08T01:42:06.882Z,100.00
2018-09-08T01:45:11.249Z,100.00
2018-09-08T01:48:15.627Z,100.00
2018-09-08T01:51:20.388Z,100.00
2018-09-08T01:54:24.774Z,100.00
2018-09-08T01:57:28.860Z,100.00
2018-09-08T02:00:33.195Z,100.00
2018-09-08T02:03:37.840Z,100.00
2018-09-08T02:06:42.469Z,100.00
2018-09-08T02:09:46.893Z,100.00
2018-09-08T02:12:51.365Z,100.00
2018-09-08T02:15:55.741Z,100.00
2018-09-08T02:19:00.102Z,100.00
2018-09-08T02:22:04.498Z,100.00
2018-09-08T02:25:09.074Z,100.00
2018-09-08T02:28:13.409Z,100.00
2018-09-08T02:31:17.769Z,100.00
2018-09-08T02:34:22.133Z,100.00
2018-09-08T02:37:26.484Z,100.00
2018-09-08T02:40:31.145Z,100.00
2018-09-08T02:43:35.551Z,100.00
2018-09-08T02:46:39.880Z,100.00
2018-09-08T02:50:01.161Z,100.00
2018-09-08T02:53:04.591Z,100.00
2018-09-08T02:56:07.387Z,100.00
2018-09-08T02:59:10.234Z,100.00
2018-09-08T03:02:13.001Z,100.00
2018-09-08T03:05:15.795Z,100.00
2018-09-08T03:08:18.582Z,100.00
2018-09-08T03:11:21.360Z,100.00
2018-09-08T03:14:24.169Z,100.00
2018-09-08T03:17:26.966Z,100.00
2018-09-08T03:20:29.773Z,100.00
2018-09-08T03:23:32.605Z,100.00
2018-09-08T03:26:35.516Z,100.00
2018-09-08T03:29:38.330Z,100.00
2018-09-08T03:32:41.140Z,100.00
2018-09-08T03:35:43.926Z,100.00
2018-09-08T03:38:46.804Z,100.00
2018-09-08T03:41:49.556Z,100.00
2018-09-08T03:44:52.486Z,100.00
2018-09-08T03:47:55.269Z,100.00
2018-09-08T03:50:58.617Z,100.00
2018-09-08T03:54:01.608Z,100.00
2018-09-08T03:57:04.377Z,100.00
2018-09-08T04:00:07.277Z,100.00
2018-09-08T04:03:11.684Z,100.00
2018-09-08T04:06:16.128Z,100.00
2018-09-08T04:09:20.752Z,100.00
2018-09-08T04:12:26.033Z,100.00
2018-09-08T04:15:30.455Z,100.00
2018-09-08T04:18:35.523Z,100.00
2018-09-08T04:21:40.377Z,100.00
2018-09-08T04:24:44.763Z,100.00
2018-09-08T04:27:50.234Z,100.00
2018-09-08T04:30:55.250Z,100.00
2018-09-08T04:33:59.581Z,100.00
2018-09-08T04:37:04.116Z,100.00
2018-09-08T04:40:08.463Z,100.00
2018-09-08T04:43:12.845Z,100.00
2018-09-08T04:46:17.455Z,100.00
2018-09-08T04:49:21.952Z,100.00
2018-09-08T04:52:26.290Z,100.00
2018-09-08T04:55:30.879Z,100.00
2018-09-08T04:58:35.265Z,100.00
2018-09-08T05:01:39.618Z,100.00
2018-09-08T05:04:44.123Z,100.00
2018-09-08T05:07:48.752Z,100.00
2018-09-08T05:10:53.091Z,100.00
2018-09-08T05:13:58.116Z,100.00
2018-09-08T05:17:02.895Z,100.00
2018-09-08T05:20:07.769Z,100.00
2018-09-08T05:23:13.050Z,100.00
2018-09-08T05:26:17.642Z,100.00
2018-09-08T05:29:21.977Z,100.00
2018-09-08T05:32:27.044Z,100.00
2018-09-08T05:35:31.469Z,100.00
2018-09-08T05:38:36.002Z,100.00
2018-09-08T05:41:40.492Z,100.00
2018-09-08T05:44:45.088Z,100.00
2018-09-08T05:47:49.656Z,100.00
2018-09-08T05:50:54.795Z,100.00
2018-09-08T05:53:59.486Z,100.00
2018-09-08T05:57:03.942Z,100.00
2018-09-08T06:00:08.474Z,100.00
2018-09-08T06:03:13.085Z,100.00
2018-09-08T06:06:17.469Z,100.00
2018-09-08T06:09:21.944Z,100.00
2018-09-08T06:12:26.389Z,100.00
2018-09-08T06:15:30.826Z,100.00
2018-09-08T06:18:35.425Z,100.00
2018-09-08T06:21:39.895Z,100.00
2018-09-08T06:24:44.364Z,100.00
2018-09-08T06:27:48.792Z,100.00
2018-09-08T06:30:53.218Z,96.25
2018-09-08T06:33:57.670Z,86.47
2018-09-08T06:37:02.054Z,80.21
2018-09-08T06:40:07.053Z,77.49
2018-09-08T06:43:11.442Z,77.05
2018-09-08T06:46:16.090Z,75.04
2018-09-08T06:49:20.639Z,73.18
2018-09-08T06:52:24.995Z,75.01
2018-09-08T06:55:29.333Z,73.42
2018-09-08T06:58:33.714Z,71.92
2018-09-08T07:01:38.128Z,74.47
2018-09-08T07:04:42.489Z,76.17
2018-09-08T07:07:47.225Z,79.26
2018-09-08T07:10:51.592Z,82.87
2018-09-08T07:13:56.834Z,78.49
2018-09-08T07:17:01.642Z,71.64
2018-09-08T07:20:06.654Z,72.26
2018-09-08T07:23:11.016Z,71.12
2018-09-08T07:26:15.349Z,69.49
2018-09-08T07:29:19.788Z,66.69
2018-09-08T07:32:24.626Z,64.86
2018-09-08T07:35:29.041Z,66.35
2018-09-08T07:38:33.537Z,67.98
2018-09-08T07:41:47.300Z,72.84
2018-09-08T07:44:51.995Z,76.39
2018-09-08T07:47:56.438Z,75.85
2018-09-08T07:51:00.864Z,71.30
2018-09-08T07:54:05.381Z,70.99
2018-09-08T07:57:09.926Z,74.56
2018-09-08T08:00:14.467Z,74.87
2018-09-08T08:03:19.438Z,75.18
2018-09-08T08:06:23.794Z,70.21
2018-09-08T08:09:28.452Z,68.88
2018-09-08T08:12:33.150Z,65.67
2018-09-08T08:15:38.331Z,67.05
2018-09-08T08:18:42.737Z,66.59
2018-09-08T08:21:47.140Z,64.16
2018-09-08T08:24:52.422Z,64.25
2018-09-08T08:27:56.961Z,64.71
2018-09-08T08:31:01.336Z,66.81
2018-09-08T08:34:21.072Z,66.68
2018-09-08T08:37:25.430Z,67.12
2018-09-08T08:40:29.805Z,67.01
2018-09-08T08:43:34.365Z,64.76
2018-09-08T08:46:39.289Z,63.45
2018-09-08T08:49:44.003Z,68.33
2018-09-08T08:54:04.198Z,68.53
2018-09-08T08:57:08.978Z,66.80
2018-09-08T09:00:13.501Z,65.50
2018-09-08T09:03:18.335Z,67.21
2018-09-08T09:06:23.274Z,66.18
2018-09-08T09:09:27.999Z,66.95
2018-09-08T09:12:33.922Z,71.53
2018-09-08T09:15:38.706Z,73.61
2018-09-08T09:19:00.731Z,73.48
2018-09-08T09:22:25.656Z,76.41
2018-09-08T09:25:30.382Z,71.73
2018-09-08T09:28:35.225Z,70.21
2018-09-08T09:31:39.614Z,66.43
2018-09-08T09:34:44.171Z,67.06
2018-09-08T09:37:49.134Z,70.90
2018-09-08T09:40:53.717Z,65.86
2018-09-08T09:43:59.239Z,65.95
2018-09-08T09:47:03.694Z,64.11
2018-09-08T09:50:10.078Z,63.31
2018-09-08T09:53:15.012Z,65.86
2018-09-08T09:56:19.481Z,65.78
2018-09-08T09:59:24.240Z,63.18
2018-09-08T10:02:43.895Z,61.21
2018-09-08T10:05:49.895Z,61.10
2018-09-08T10:08:55.504Z,60.04
2018-09-08T10:12:00.166Z,63.08
2018-09-08T10:15:05.744Z,62.84
2018-09-08T10:18:10.406Z,66.00
2018-09-08T10:21:14.926Z,69.25
2018-09-08T10:24:19.762Z,69.68
2018-09-08T10:27:24.456Z,70.85
2018-09-08T10:30:29.119Z,71.00
2018-09-08T10:33:33.764Z,71.09
2018-09-08T10:36:38.243Z,72.75
2018-09-08T10:39:43.035Z,70.26
2018-09-08T10:42:49.053Z,71.62
2018-09-08T10:45:53.710Z,72.08
2018-09-08T10:48:58.763Z,71.88
2018-09-08T10:52:45.957Z,70.85
2018-09-08T10:55:50.446Z,69.05
2018-09-08T10:58:55.802Z,67.11
2018-09-08T11:02:01.016Z,67.01
2018-09-08T11:05:05.589Z,67.33
2018-09-08T11:08:09.987Z,65.22
2018-09-08T11:11:14.421Z,67.77
2018-09-08T11:14:19.056Z,69.17
2018-09-08T11:17:23.558Z,67.65
2018-09-08T11:20:28.294Z,65.56
2018-09-08T11:23:33.260Z,67.83
2018-09-08T11:26:38.199Z,65.11
2018-09-08T11:29:42.686Z,63.14
2018-09-08T11:32:47.284Z,66.22
2018-09-08T11:35:52.714Z,63.58
2018-09-08T11:38:57.609Z,62.07
2018-09-08T11:42:02.401Z,62.80
2018-09-08T11:45:06.871Z,65.76
2018-09-08T11:48:11.287Z,63.47
2018-09-08T11:51:15.741Z,63.46
2018-09-08T11:54:20.154Z,61.70
2018-09-08T11:57:24.570Z,59.57
2018-09-08T12:00:29.072Z,58.83
2018-09-08T12:03:34.372Z,59.50
2018-09-08T12:06:38.957Z,54.25
2018-09-08T12:09:43.536Z,54.20
2018-09-08T12:12:48.210Z,56.25
2018-09-08T12:15:52.707Z,59.26
2018-09-08T12:18:57.421Z,57.65
2018-09-08T12:22:01.833Z,50.08
2018-09-08T12:25:06.758Z,53.01
2018-09-08T12:28:11.294Z,54.49
2018-09-08T12:31:15.800Z,53.96
2018-09-08T12:34:20.316Z,55.45
2018-09-08T12:37:25.442Z,55.47
2018-09-08T12:40:30.766Z,54.32
2018-09-08T12:43:37.591Z,54.32
2018-09-08T12:46:43.986Z,55.16
2018-09-08T12:49:49.000Z,53.10
2018-09-08T12:52:54.043Z,55.94
2018-09-08T12:55:59.517Z,57.83
2018-09-08T12:59:04.180Z,55.75
2018-09-08T13:02:08.643Z,57.13
2018-09-08T13:05:13.303Z,54.88
2018-09-08T13:08:18.706Z,55.89
2018-09-08T13:11:23.560Z,55.86
2018-09-08T13:14:28.360Z,57.01
2018-09-08T13:17:33.067Z,56.29
2018-09-08T13:20:37.948Z,57.71
2018-09-08T13:23:42.471Z,58.14
2018-09-08T13:26:46.998Z,56.62
2018-09-08T13:29:53.210Z,55.83
2018-09-08T13:32:57.920Z,58.43
2018-09-08T13:36:04.258Z,61.29
2018-09-08T13:39:10.461Z,62.42
2018-09-08T13:42:15.081Z,61.46
2018-09-08T13:45:19.533Z,60.29
2018-09-08T13:48:25.015Z,63.05
2018-09-08T13:51:30.887Z,62.88
2018-09-08T13:54:35.823Z,62.18
2018-09-08T13:57:40.825Z,60.97
2018-09-08T14:00:46.150Z,59.10
2018-09-08T14:03:51.406Z,61.44
2018-09-08T14:06:56.429Z,61.99
2018-09-08T14:10:01.469Z,63.94
2018-09-08T14:13:06.548Z,63.42
2018-09-08T14:16:12.064Z,62.51
2018-09-08T14:19:16.966Z,60.02
2018-09-08T14:22:21.840Z,60.24
2018-09-08T14:25:26.429Z,62.27
2018-09-08T14:28:31.260Z,61.80
2018-09-08T14:31:35.839Z,60.97
2018-09-08T14:34:41.015Z,61.72
2018-09-08T14:37:45.718Z,60.65
2018-09-08T14:40:50.245Z,61.12
2018-09-08T14:43:54.718Z,61.64
2018-09-08T14:46:59.220Z,60.14
2018-09-08T14:50:03.643Z,60.83
2018-09-08T14:53:08.301Z,58.77
2018-09-08T14:56:12.803Z,57.50
2018-09-08T14:59:17.285Z,58.66
2018-09-08T15:02:22.143Z,60.03
2018-09-08T15:05:26.853Z,60.67
2018-09-08T15:08:34.105Z,62.35
2018-09-08T15:11:38.821Z,61.03
2018-09-08T15:14:43.698Z,61.86
2018-09-08T15:17:48.562Z,63.09
2018-09-08T15:20:53.553Z,62.34
2018-09-08T15:23:59.045Z,63.04
2018-09-08T15:27:04.088Z,64.27
2018-09-08T15:30:13.744Z,64.47
2018-09-08T15:33:18.460Z,63.88
2018-09-08T15:36:22.972Z,66.25
2018-09-08T15:39:27.378Z,64.97
2018-09-08T15:42:31.785Z,63.74
2018-09-08T15:45:37.050Z,64.23
2018-09-08T15:48:41.450Z,65.11
2018-09-08T15:51:45.830Z,63.78
2018-09-08T15:54:50.475Z,63.81
2018-09-08T15:57:54.940Z,64.18
2018-09-08T16:00:59.274Z,63.80
2018-09-08T16:04:03.867Z,64.54
2018-09-08T16:07:08.770Z,64.90
2018-09-08T16:10:13.378Z,64.33
2018-09-08T16:13:17.782Z,64.27
2018-09-08T16:16:22.182Z,64.58
2018-09-08T16:19:26.753Z,65.42
2018-09-08T16:22:31.138Z,65.96
2018-09-08T16:25:37.244Z,67.50
2018-09-08T16:28:42.121Z,66.62
2018-09-08T16:31:46.513Z,67.94
2018-09-08T16:34:51.087Z,67.31
2018-09-08T16:37:55.493Z,67.13
2018-09-08T16:41:00.215Z,68.57
2018-09-08T16:44:04.681Z,68.63
2018-09-08T16:47:09.009Z,68.21
2018-09-08T16:50:13.405Z,69.54
2018-09-08T16:53:19.015Z,69.93
2018-09-08T16:56:23.390Z,71.33
2018-09-08T16:59:27.790Z,71.78
2018-09-08T17:02:32.806Z,73.35
2018-09-08T17:05:37.384Z,75.48
2018-09-08T17:08:41.846Z,75.94
2018-09-08T17:11:46.459Z,77.68
2018-09-08T17:14:51.120Z,79.10
2018-09-08T17:17:55.493Z,79.76
2018-09-08T17:20:59.920Z,79.89
2018-09-08T17:24:04.252Z,81.14
2018-09-08T17:27:08.642Z,81.46
2018-09-08T17:30:13.182Z,82.57
2018-09-08T17:33:17.555Z,83.57
2018-09-08T17:36:21.898Z,85.50
2018-09-08T17:39:26.494Z,86.74
2018-09-08T17:42:30.861Z,88.28
2018-09-08T17:45:36.042Z,90.96
2018-09-08T17:48:40.525Z,92.72
2018-09-08T17:51:44.944Z,94.03
2018-09-08T17:54:49.371Z,95.55
2018-09-08T17:57:54.504Z,97.79
2018-09-08T18:00:59.098Z,100.00
2018-09-08T18:04:03.614Z,100.00
2018-09-08T18:07:08.110Z,100.00
2018-09-08T18:10:12.666Z,100.00
2018-09-08T18:13:17.513Z,100.00
2018-09-08T18:16:22.297Z,100.00
2018-09-08T18:19:27.324Z,100.00
2018-09-08T18:22:34.781Z,100.00
2018-09-08T18:25:39.777Z,100.00
2018-09-08T18:28:45.729Z,100.00
2018-09-08T18:31:50.133Z,100.00
2018-09-08T18:34:54.717Z,100.00
2018-09-08T18:37:59.085Z,100.00
2018-09-08T18:41:03.509Z,100.00
2018-09-08T18:44:08.345Z,100.00
2018-09-08T18:47:12.890Z,100.00
2018-09-08T18:50:17.532Z,100.00
2018-09-08T18:53:21.998Z,100.00
2018-09-08T18:56:26.897Z,100.00
2018-09-08T18:59:31.517Z,100.00
2018-09-08T19:02:36.149Z,100.00
2018-09-08T19:05:40.630Z,100.00
2018-09-08T19:08:45.763Z,100.00
2018-09-08T19:11:50.708Z,100.00
2018-09-08T19:15:00.687Z,100.00
2018-09-08T19:18:05.445Z,100.00
2018-09-08T19:21:10.199Z,100.00
2018-09-08T19:24:19.968Z,100.00
2018-09-08T19:27:24.504Z,100.00
2018-09-08T19:30:28.954Z,100.00
2018-09-08T19:33:34.267Z,100.00
2018-09-08T19:36:38.856Z,100.00
2018-09-08T19:39:43.447Z,100.00
2018-09-08T19:42:47.947Z,100.00
2018-09-08T19:45:52.445Z,100.00
2018-09-08T19:48:56.893Z,100.00
2018-09-08T19:52:01.503Z,100.00
2018-09-08T19:55:06.016Z,100.00
2018-09-08T19:59:15.015Z,100.00
2018-09-08T20:02:19.443Z,100.00
2018-09-08T20:05:24.778Z,100.00
2018-09-08T20:08:29.213Z,100.00
2018-09-08T20:11:33.558Z,100.00
2018-09-08T20:14:38.263Z,100.00
2018-09-08T20:17:43.589Z,100.00
2018-09-08T20:20:48.156Z,100.00
2018-09-08T20:23:52.625Z,100.00
2018-09-08T20:26:57.407Z,100.00
2018-09-08T20:30:01.872Z,100.00
2018-09-08T20:33:07.127Z,100.00
2018-09-08T20:36:11.558Z,100.00
2018-09-08T20:39:16.473Z,100.00
2018-09-08T20:42:20.865Z,100.00
2018-09-08T20:45:26.029Z,100.00
2018-09-08T20:48:30.581Z,100.00
2018-09-08T20:51:35.232Z,100.00
2018-09-08T20:54:39.620Z,100.00
2018-09-08T21:01:00.462Z,100.00
2018-09-08T21:04:05.234Z,100.00
2018-09-08T21:07:10.493Z,100.00
2018-09-08T21:10:14.981Z,100.00
2018-09-08T21:13:19.525Z,100.00
2018-09-08T21:16:23.881Z,100.00
2018-09-08T21:19:28.323Z,100.00
2018-09-08T21:22:32.656Z,100.00
2018-09-08T21:25:37.817Z,100.00
2018-09-08T21:28:42.400Z,100.00
2018-09-08T21:31:46.777Z,100.00
2018-09-08T21:34:51.584Z,100.00
2018-09-08T21:37:56.129Z,100.00
2018-09-08T21:41:00.476Z,100.00
2018-09-08T21:44:04.961Z,100.00
2018-09-08T21:47:09.685Z,100.00
2018-09-08T21:50:14.266Z,100.00
2018-09-08T21:53:19.517Z,100.00
2018-09-08T21:56:23.852Z,100.00
2018-09-08T21:59:28.570Z,100.00
2018-09-08T22:02:32.991Z,100.00
2018-09-08T22:05:39.549Z,100.00
2018-09-08T22:08:44.956Z,100.00
2018-09-08T22:11:49.408Z,100.00
2018-09-08T22:14:55.428Z,100.00
2018-09-08T22:17:59.886Z,100.00
2018-09-08T22:21:04.285Z,100.00
2018-09-08T22:24:08.795Z,100.00
2018-09-08T22:27:13.549Z,100.00
2018-09-08T22:30:18.048Z,100.00
2018-09-08T22:33:22.512Z,100.00
2018-09-08T22:36:27.502Z,100.00
2018-09-08T22:39:31.881Z,100.00
2018-09-08T22:42:36.797Z,100.00
2018-09-08T22:45:41.300Z,100.00
2018-09-08T22:48:46.157Z,100.00
2018-09-08T22:51:51.068Z,100.00
2018-09-08T22:54:55.760Z,100.00
2018-09-08T22:58:00.415Z,100.00
2018-09-08T23:01:04.869Z,100.00
2018-09-08T23:04:09.309Z,100.00
2018-09-08T23:07:13.746Z,100.00
2018-09-08T23:10:18.410Z,100.00
2018-09-08T23:13:22.912Z,100.00
2018-09-08T23:16:27.293Z,100.00
2018-09-08T23:19:31.660Z,100.00
2018-09-08T23:22:36.050Z,100.00
2018-09-08T23:25:40.509Z,100.00
2018-09-08T23:28:44.960Z,100.00
2018-09-08T23:31:49.350Z,100.00
2018-09-08T23:34:54.447Z,100.00
2018-09-08T23:37:58.896Z,100.00
2018-09-08T23:41:03.508Z,100.00
2018-09-08T23:44:07.961Z,100.00
2018-09-08T23:47:12.741Z,100.00
2018-09-08T23:50:17.280Z,100.00
2018-09-08T23:53:22.010Z,100.00
2018-09-08T23:56:26.454Z,100.00
2018-09-08T23:59:30.914Z,100.00
